sensor_id;sensor_type;location;lat;lon;timestamp;temperature;humidity
27647;DHT22;42229;51.230;6.240;2022-10-31T00:01:23;17.30;99.90
27647;DHT22;42229;51.230;6.240;2022-10-31T00:03:54;17.30;99.90
27647;DHT22;42229;51.230;6.240;2022-10-31T00:06:20;17.30;99.90
27647;DHT22;42229;51.230;6.240;2022-10-31T00:08:51;17.30;99.90
27647;DHT22;42229;51.230;6.240;2022-10-31T00:11:18;17.30;99.90
27647;DHT22;42229;51.230;6.240;2022-10-31T00:13:44;17.30;99.90
27647;DHT22;42229;51.230;6.240;2022-10-31T00:16:14;17.20;99.90
27647;DHT22;42229;51.230;6.240;2022-10-31T00:18:41;17.20;99.90
27647;DHT22;42229;51.230;6.240;2022-10-31T00:21:07;17.20;99.90
27647;DHT22;42229;51.230;6.240;2022-10-31T00:23:34;17.20;99.90
27647;DHT22;42229;51.230;6.240;2022-10-31T00:26:01;17.20;99.90
27647;DHT22;42229;51.230;6.240;2022-10-31T00:28:27;17.20;99.90
27647;DHT22;42229;51.230;6.240;2022-10-31T00:31:02;17.20;99.90
27647;DHT22;42229;51.230;6.240;2022-10-31T00:33:30;17.20;99.90
27647;DHT22;42229;51.230;6.240;2022-10-31T00:35:56;17.10;99.90
27647;DHT22;42229;51.230;6.240;2022-10-31T00:38:22;17.10;99.90
27647;DHT22;42229;51.230;6.240;2022-10-31T00:40:49;17.10;99.90
27647;DHT22;42229;51.230;6.240;2022-10-31T00:43:15;17.00;99.90
27647;DHT22;42229;51.230;6.240;2022-10-31T00:45:42;17.00;99.90
27647;DHT22;42229;51.230;6.240;2022-10-31T00:48:08;17.00;99.90
27647;DHT22;42229;51.230;6.240;2022-10-31T00:50:35;16.90;99.90
27647;DHT22;42229;51.230;6.240;2022-10-31T00:53:01;16.80;99.90
27647;DHT22;42229;51.230;6.240;2022-10-31T00:55:28;16.80;99.90
27647;DHT22;42229;51.230;6.240;2022-10-31T00:57:54;16.70;99.90
27647;DHT22;42229;51.230;6.240;2022-10-31T01:00:21;16.70;99.90
27647;DHT22;42229;51.230;6.240;2022-10-31T01:02:48;16.60;99.90
27647;DHT22;42229;51.230;6.240;2022-10-31T01:05:14;16.60;99.90
27647;DHT22;42229;51.230;6.240;2022-10-31T01:07:41;16.50;99.90
27647;DHT22;42229;51.230;6.240;2022-10-31T01:10:09;16.40;99.90
27647;DHT22;42229;51.230;6.240;2022-10-31T01:12:37;16.40;99.90
27647;DHT22;42229;51.230;6.240;2022-10-31T01:15:04;16.30;99.90
27647;DHT22;42229;51.230;6.240;2022-10-31T01:17:30;16.30;99.90
27647;DHT22;42229;51.230;6.240;2022-10-31T01:19:57;16.20;99.90
27647;DHT22;42229;51.230;6.240;2022-10-31T01:22:26;16.20;99.90
27647;DHT22;42229;51.230;6.240;2022-10-31T01:24:52;16.20;99.90
27647;DHT22;42229;51.230;6.240;2022-10-31T01:27:19;16.10;99.90
27647;DHT22;42229;51.230;6.240;2022-10-31T01:29:45;16.10;99.90
27647;DHT22;42229;51.230;6.240;2022-10-31T01:32:12;16.00;99.90
27647;DHT22;42229;51.230;6.240;2022-10-31T01:34:38;16.00;99.90
27647;DHT22;42229;51.230;6.240;2022-10-31T01:37:04;16.00;99.90
27647;DHT22;42229;51.230;6.240;2022-10-31T01:39:31;16.00;99.90
27647;DHT22;42229;51.230;6.240;2022-10-31T01:41:58;15.90;99.90
27647;DHT22;42229;51.230;6.240;2022-10-31T01:46:52;15.90;99.90
27647;DHT22;42229;51.230;6.240;2022-10-31T01:52:16;15.80;99.90
27647;DHT22;42229;51.230;6.240;2022-10-31T01:54:56;15.80;99.90
27647;DHT22;42229;51.230;6.240;2022-10-31T01:57:26;15.70;99.90
27647;DHT22;42229;51.230;6.240;2022-10-31T01:59:53;15.70;99.90
27647;DHT22;42229;51.230;6.240;2022-10-31T02:02:22;15.70;99.90
27647;DHT22;42229;51.230;6.240;2022-10-31T02:04:49;15.70;99.90
27647;DHT22;42229;51.230;6.240;2022-10-31T02:07:23;15.70;99.90
27647;DHT22;42229;51.230;6.240;2022-10-31T02:09:51;15.60;99.90
27647;DHT22;42229;51.230;6.240;2022-10-31T02:12:19;15.70;99.90
27647;DHT22;42229;51.230;6.240;2022-10-31T02:14:46;15.60;99.90
27647;DHT22;42229;51.230;6.240;2022-10-31T02:17:12;15.50;99.90
27647;DHT22;42229;51.230;6.240;2022-10-31T02:19:48;15.50;99.90
27647;DHT22;42229;51.230;6.240;2022-10-31T02:30:18;15.30;99.90
27647;DHT22;42229;51.230;6.240;2022-10-31T02:32:48;15.30;99.90
27647;DHT22;42229;51.230;6.240;2022-10-31T02:38:00;15.20;99.90
27647;DHT22;42229;51.230;6.240;2022-10-31T02:40:37;15.20;99.90
27647;DHT22;42229;51.230;6.240;2022-10-31T02:43:35;15.20;99.90
27647;DHT22;42229;51.230;6.240;2022-10-31T02:46:30;15.10;99.90
27647;DHT22;42229;51.230;6.240;2022-10-31T02:49:03;15.10;99.90
27647;DHT22;42229;51.230;6.240;2022-10-31T02:51:34;15.10;99.90
27647;DHT22;42229;51.230;6.240;2022-10-31T02:54:00;15.00;99.90
27647;DHT22;42229;51.230;6.240;2022-10-31T02:56:26;15.00;99.90
27647;DHT22;42229;51.230;6.240;2022-10-31T02:59:02;15.00;99.90
27647;DHT22;42229;51.230;6.240;2022-10-31T03:01:33;15.00;99.90
27647;DHT22;42229;51.230;6.240;2022-10-31T03:06:46;14.90;99.90
27647;DHT22;42229;51.230;6.240;2022-10-31T03:12:07;14.80;99.90
27647;DHT22;42229;51.230;6.240;2022-10-31T03:14:56;14.80;99.90
27647;DHT22;42229;51.230;6.240;2022-10-31T03:17:50;14.70;99.90
27647;DHT22;42229;51.230;6.240;2022-10-31T03:20:37;14.70;99.90
27647;DHT22;42229;51.230;6.240;2022-10-31T03:23:08;14.70;99.90
27647;DHT22;42229;51.230;6.240;2022-10-31T03:25:37;14.60;99.90
27647;DHT22;42229;51.230;6.240;2022-10-31T03:28:04;14.60;99.90
27647;DHT22;42229;51.230;6.240;2022-10-31T03:30:33;14.60;99.90
27647;DHT22;42229;51.230;6.240;2022-10-31T03:33:00;14.50;99.90
27647;DHT22;42229;51.230;6.240;2022-10-31T03:35:30;14.50;99.90
27647;DHT22;42229;51.230;6.240;2022-10-31T03:37:59;14.50;99.90
27647;DHT22;42229;51.230;6.240;2022-10-31T03:40:26;14.50;99.90
27647;DHT22;42229;51.230;6.240;2022-10-31T03:42:58;14.40;99.90
27647;DHT22;42229;51.230;6.240;2022-10-31T03:45:28;14.40;99.90
27647;DHT22;42229;51.230;6.240;2022-10-31T03:47:56;14.40;99.90
27647;DHT22;42229;51.230;6.240;2022-10-31T03:50:25;14.40;99.90
27647;DHT22;42229;51.230;6.240;2022-10-31T03:53:15;14.30;99.90
27647;DHT22;42229;51.230;6.240;2022-10-31T03:55:48;14.30;99.90
27647;DHT22;42229;51.230;6.240;2022-10-31T04:01:22;14.30;99.90
27647;DHT22;42229;51.230;6.240;2022-10-31T04:03:50;14.30;99.90
27647;DHT22;42229;51.230;6.240;2022-10-31T04:06:16;14.20;99.90
27647;DHT22;42229;51.230;6.240;2022-10-31T04:08:49;14.20;99.90
27647;DHT22;42229;51.230;6.240;2022-10-31T04:11:19;14.20;99.90
27647;DHT22;42229;51.230;6.240;2022-10-31T04:14:02;14.20;99.90
27647;DHT22;42229;51.230;6.240;2022-10-31T04:16:30;14.20;99.90
27647;DHT22;42229;51.230;6.240;2022-10-31T04:18:56;14.20;99.90
27647;DHT22;42229;51.230;6.240;2022-10-31T04:21:29;14.20;99.90
27647;DHT22;42229;51.230;6.240;2022-10-31T04:23:57;14.20;99.90
27647;DHT22;42229;51.230;6.240;2022-10-31T04:26:25;14.10;99.90
27647;DHT22;42229;51.230;6.240;2022-10-31T04:28:52;14.20;99.90
27647;DHT22;42229;51.230;6.240;2022-10-31T04:31:18;14.20;99.90
27647;DHT22;42229;51.230;6.240;2022-10-31T04:33:48;14.20;99.90
27647;DHT22;42229;51.230;6.240;2022-10-31T04:36:14;14.10;99.90
27647;DHT22;42229;51.230;6.240;2022-10-31T04:38:41;14.10;99.90
27647;DHT22;42229;51.230;6.240;2022-10-31T04:41:28;14.10;99.90
27647;DHT22;42229;51.230;6.240;2022-10-31T04:44:02;14.10;99.90
27647;DHT22;42229;51.230;6.240;2022-10-31T04:46:28;14.10;99.90
27647;DHT22;42229;51.230;6.240;2022-10-31T04:48:56;14.10;99.90
27647;DHT22;42229;51.230;6.240;2022-10-31T04:51:23;14.10;99.90
27647;DHT22;42229;51.230;6.240;2022-10-31T04:53:50;14.10;99.90
27647;DHT22;42229;51.230;6.240;2022-10-31T04:56:49;14.00;99.90
27647;DHT22;42229;51.230;6.240;2022-10-31T04:59:20;14.00;99.90
27647;DHT22;42229;51.230;6.240;2022-10-31T05:01:53;14.00;99.90
27647;DHT22;42229;51.230;6.240;2022-10-31T05:04:35;14.00;99.90
27647;DHT22;42229;51.230;6.240;2022-10-31T05:07:02;14.00;99.90
27647;DHT22;42229;51.230;6.240;2022-10-31T05:09:28;13.90;99.90
27647;DHT22;42229;51.230;6.240;2022-10-31T05:11:54;13.90;99.90
27647;DHT22;42229;51.230;6.240;2022-10-31T05:14:55;13.90;99.90
27647;DHT22;42229;51.230;6.240;2022-10-31T05:17:40;13.90;99.90
27647;DHT22;42229;51.230;6.240;2022-10-31T05:20:41;13.90;99.90
27647;DHT22;42229;51.230;6.240;2022-10-31T05:23:28;13.90;99.90
27647;DHT22;42229;51.230;6.240;2022-10-31T05:25:54;13.80;99.90
27647;DHT22;42229;51.230;6.240;2022-10-31T05:28:20;13.90;99.90
27647;DHT22;42229;51.230;6.240;2022-10-31T05:30:46;13.90;99.90
27647;DHT22;42229;51.230;6.240;2022-10-31T05:33:15;13.80;99.90
27647;DHT22;42229;51.230;6.240;2022-10-31T05:36:00;13.80;99.90
27647;DHT22;42229;51.230;6.240;2022-10-31T05:38:45;13.80;99.90
27647;DHT22;42229;51.230;6.240;2022-10-31T05:41:19;13.70;99.90
27647;DHT22;42229;51.230;6.240;2022-10-31T05:43:47;13.70;99.90
27647;DHT22;42229;51.230;6.240;2022-10-31T05:46:16;13.70;99.90
27647;DHT22;42229;51.230;6.240;2022-10-31T05:49:08;13.60;99.90
27647;DHT22;42229;51.230;6.240;2022-10-31T05:51:53;13.60;99.90
27647;DHT22;42229;51.230;6.240;2022-10-31T05:54:25;13.60;99.90
27647;DHT22;42229;51.230;6.240;2022-10-31T05:56:53;13.60;99.90
27647;DHT22;42229;51.230;6.240;2022-10-31T05:59:19;13.50;99.90
27647;DHT22;42229;51.230;6.240;2022-10-31T06:01:45;13.50;99.90
27647;DHT22;42229;51.230;6.240;2022-10-31T06:04:40;13.50;99.90
27647;DHT22;42229;51.230;6.240;2022-10-31T06:07:07;13.50;99.90
27647;DHT22;42229;51.230;6.240;2022-10-31T06:09:33;13.40;99.90
27647;DHT22;42229;51.230;6.240;2022-10-31T06:12:00;13.40;99.90
27647;DHT22;42229;51.230;6.240;2022-10-31T06:14:26;13.40;99.90
27647;DHT22;42229;51.230;6.240;2022-10-31T06:16:54;13.40;99.90
27647;DHT22;42229;51.230;6.240;2022-10-31T06:19:41;13.30;99.90
27647;DHT22;42229;51.230;6.240;2022-10-31T06:22:09;13.30;99.90
27647;DHT22;42229;51.230;6.240;2022-10-31T06:24:37;13.30;99.90
27647;DHT22;42229;51.230;6.240;2022-10-31T06:27:16;13.30;99.90
27647;DHT22;42229;51.230;6.240;2022-10-31T06:29:43;13.30;99.90
27647;DHT22;42229;51.230;6.240;2022-10-31T06:32:17;13.30;99.90
27647;DHT22;42229;51.230;6.240;2022-10-31T06:34:45;13.30;99.90
27647;DHT22;42229;51.230;6.240;2022-10-31T06:37:14;13.20;99.90
27647;DHT22;42229;51.230;6.240;2022-10-31T06:39:44;13.20;99.90
27647;DHT22;42229;51.230;6.240;2022-10-31T06:42:12;13.20;99.90
27647;DHT22;42229;51.230;6.240;2022-10-31T06:44:38;13.20;99.90
27647;DHT22;42229;51.230;6.240;2022-10-31T06:47:22;13.20;99.90
27647;DHT22;42229;51.230;6.240;2022-10-31T06:49:57;13.20;99.90
27647;DHT22;42229;51.230;6.240;2022-10-31T06:52:25;13.10;99.90
27647;DHT22;42229;51.230;6.240;2022-10-31T06:54:52;13.10;99.90
27647;DHT22;42229;51.230;6.240;2022-10-31T06:57:18;13.10;99.90
27647;DHT22;42229;51.230;6.240;2022-10-31T06:59:45;13.10;99.90
27647;DHT22;42229;51.230;6.240;2022-10-31T07:02:13;13.10;99.90
27647;DHT22;42229;51.230;6.240;2022-10-31T07:04:42;13.10;99.90
27647;DHT22;42229;51.230;6.240;2022-10-31T07:07:12;13.10;99.90
27647;DHT22;42229;51.230;6.240;2022-10-31T07:09:39;13.10;99.90
27647;DHT22;42229;51.230;6.240;2022-10-31T07:12:06;13.10;99.90
27647;DHT22;42229;51.230;6.240;2022-10-31T07:14:37;13.10;99.90
27647;DHT22;42229;51.230;6.240;2022-10-31T07:17:03;13.10;99.90
27647;DHT22;42229;51.230;6.240;2022-10-31T07:19:33;13.10;99.90
27647;DHT22;42229;51.230;6.240;2022-10-31T07:21:59;13.10;99.90
27647;DHT22;42229;51.230;6.240;2022-10-31T07:24:28;13.10;99.90
27647;DHT22;42229;51.230;6.240;2022-10-31T07:26:56;13.10;99.90
27647;DHT22;42229;51.230;6.240;2022-10-31T07:29:22;13.10;99.90
27647;DHT22;42229;51.230;6.240;2022-10-31T07:31:49;13.20;99.90
27647;DHT22;42229;51.230;6.240;2022-10-31T07:34:21;13.10;99.90
27647;DHT22;42229;51.230;6.240;2022-10-31T07:37:10;13.20;99.90
27647;DHT22;42229;51.230;6.240;2022-10-31T07:39:37;13.20;99.90
27647;DHT22;42229;51.230;6.240;2022-10-31T07:42:03;13.20;99.90
27647;DHT22;42229;51.230;6.240;2022-10-31T07:44:31;13.20;99.90
27647;DHT22;42229;51.230;6.240;2022-10-31T07:47:39;13.30;99.90
27647;DHT22;42229;51.230;6.240;2022-10-31T07:50:32;13.30;99.90
27647;DHT22;42229;51.230;6.240;2022-10-31T07:53:21;13.40;99.90
27647;DHT22;42229;51.230;6.240;2022-10-31T07:55:54;13.40;99.90
27647;DHT22;42229;51.230;6.240;2022-10-31T07:58:24;13.40;99.90
27647;DHT22;42229;51.230;6.240;2022-10-31T08:00:51;13.50;99.90
27647;DHT22;42229;51.230;6.240;2022-10-31T08:03:28;13.50;99.90
27647;DHT22;42229;51.230;6.240;2022-10-31T08:05:55;13.60;99.90
27647;DHT22;42229;51.230;6.240;2022-10-31T08:08:47;13.60;99.90
27647;DHT22;42229;51.230;6.240;2022-10-31T08:11:14;13.70;99.90
27647;DHT22;42229;51.230;6.240;2022-10-31T08:13:41;13.80;99.90
27647;DHT22;42229;51.230;6.240;2022-10-31T08:16:09;13.90;99.90
27647;DHT22;42229;51.230;6.240;2022-10-31T08:18:42;14.00;99.90
27647;DHT22;42229;51.230;6.240;2022-10-31T08:21:12;14.00;99.90
27647;DHT22;42229;51.230;6.240;2022-10-31T08:23:39;14.20;99.90
27647;DHT22;42229;51.230;6.240;2022-10-31T08:26:05;14.30;99.90
27647;DHT22;42229;51.230;6.240;2022-10-31T08:28:32;14.40;99.90
27647;DHT22;42229;51.230;6.240;2022-10-31T08:30:58;14.60;99.90
27647;DHT22;42229;51.230;6.240;2022-10-31T08:33:39;14.70;99.90
27647;DHT22;42229;51.230;6.240;2022-10-31T08:36:17;14.90;99.90
27647;DHT22;42229;51.230;6.240;2022-10-31T08:38:52;15.10;99.90
27647;DHT22;42229;51.230;6.240;2022-10-31T08:41:18;15.30;99.90
27647;DHT22;42229;51.230;6.240;2022-10-31T08:43:45;15.40;99.90
27647;DHT22;42229;51.230;6.240;2022-10-31T08:46:12;15.50;99.90
27647;DHT22;42229;51.230;6.240;2022-10-31T08:48:40;15.70;99.90
27647;DHT22;42229;51.230;6.240;2022-10-31T08:51:06;15.90;99.90
27647;DHT22;42229;51.230;6.240;2022-10-31T08:53:32;15.90;99.90
27647;DHT22;42229;51.230;6.240;2022-10-31T08:56:19;16.00;99.90
27647;DHT22;42229;51.230;6.240;2022-10-31T08:58:46;16.10;99.90
27647;DHT22;42229;51.230;6.240;2022-10-31T09:01:12;16.20;99.90
27647;DHT22;42229;51.230;6.240;2022-10-31T09:03:38;16.20;99.90
27647;DHT22;42229;51.230;6.240;2022-10-31T09:06:05;16.30;99.90
27647;DHT22;42229;51.230;6.240;2022-10-31T09:08:35;16.40;99.90
27647;DHT22;42229;51.230;6.240;2022-10-31T09:11:02;16.40;99.90
27647;DHT22;42229;51.230;6.240;2022-10-31T09:13:47;16.50;99.90
27647;DHT22;42229;51.230;6.240;2022-10-31T09:16:46;16.50;99.90
27647;DHT22;42229;51.230;6.240;2022-10-31T09:19:19;16.60;99.90
27647;DHT22;42229;51.230;6.240;2022-10-31T09:21:46;16.70;99.90
27647;DHT22;42229;51.230;6.240;2022-10-31T09:24:12;16.70;99.90
27647;DHT22;42229;51.230;6.240;2022-10-31T09:26:42;16.70;99.90
27647;DHT22;42229;51.230;6.240;2022-10-31T09:29:23;16.80;99.90
27647;DHT22;42229;51.230;6.240;2022-10-31T09:31:55;16.80;99.90
27647;DHT22;42229;51.230;6.240;2022-10-31T09:34:27;16.90;99.90
27647;DHT22;42229;51.230;6.240;2022-10-31T09:37:05;16.90;99.90
27647;DHT22;42229;51.230;6.240;2022-10-31T09:39:34;17.00;99.90
27647;DHT22;42229;51.230;6.240;2022-10-31T09:45:26;17.10;99.90
27647;DHT22;42229;51.230;6.240;2022-10-31T09:48:06;17.20;99.90
27647;DHT22;42229;51.230;6.240;2022-10-31T09:51:17;17.30;99.90
27647;DHT22;42229;51.230;6.240;2022-10-31T09:53:59;17.40;99.90
27647;DHT22;42229;51.230;6.240;2022-10-31T09:56:31;17.50;99.90
27647;DHT22;42229;51.230;6.240;2022-10-31T09:58:59;17.50;99.90
27647;DHT22;42229;51.230;6.240;2022-10-31T10:03:59;17.70;99.90
27647;DHT22;42229;51.230;6.240;2022-10-31T10:06:56;17.80;99.90
27647;DHT22;42229;51.230;6.240;2022-10-31T10:09:46;17.90;99.90
27647;DHT22;42229;51.230;6.240;2022-10-31T10:18:05;18.20;99.90
27647;DHT22;42229;51.230;6.240;2022-10-31T10:23:46;18.40;99.90
27647;DHT22;42229;51.230;6.240;2022-10-31T10:26:20;18.50;99.90
27647;DHT22;42229;51.230;6.240;2022-10-31T10:28:52;18.60;99.90
27647;DHT22;42229;51.230;6.240;2022-10-31T10:31:27;18.60;99.90
27647;DHT22;42229;51.230;6.240;2022-10-31T10:34:30;18.80;99.90
27647;DHT22;42229;51.230;6.240;2022-10-31T10:37:20;18.80;99.90
27647;DHT22;42229;51.230;6.240;2022-10-31T10:39:52;18.90;99.90
27647;DHT22;42229;51.230;6.240;2022-10-31T10:42:21;19.00;99.90
27647;DHT22;42229;51.230;6.240;2022-10-31T10:45:13;19.10;99.90
27647;DHT22;42229;51.230;6.240;2022-10-31T10:48:05;19.10;99.90
27647;DHT22;42229;51.230;6.240;2022-10-31T10:50:37;19.20;99.90
27647;DHT22;42229;51.230;6.240;2022-10-31T10:53:31;19.20;99.90
27647;DHT22;42229;51.230;6.240;2022-10-31T10:56:35;19.20;99.90
27647;DHT22;42229;51.230;6.240;2022-10-31T10:59:06;19.30;99.90
27647;DHT22;42229;51.230;6.240;2022-10-31T11:01:35;19.30;99.90
27647;DHT22;42229;51.230;6.240;2022-10-31T11:04:02;19.30;99.90
27647;DHT22;42229;51.230;6.240;2022-10-31T11:06:28;19.40;99.90
27647;DHT22;42229;51.230;6.240;2022-10-31T11:08:54;19.40;99.90
27647;DHT22;42229;51.230;6.240;2022-10-31T11:11:28;19.40;99.90
27647;DHT22;42229;51.230;6.240;2022-10-31T11:14:03;19.50;99.90
27647;DHT22;42229;51.230;6.240;2022-10-31T11:16:36;19.50;99.90
27647;DHT22;42229;51.230;6.240;2022-10-31T11:19:12;19.60;99.90
27647;DHT22;42229;51.230;6.240;2022-10-31T11:21:46;19.70;99.90
27647;DHT22;42229;51.230;6.240;2022-10-31T11:24:17;19.70;99.90
27647;DHT22;42229;51.230;6.240;2022-10-31T11:26:51;19.80;99.90
27647;DHT22;42229;51.230;6.240;2022-10-31T11:29:34;19.90;99.90
27647;DHT22;42229;51.230;6.240;2022-10-31T11:32:02;20.00;99.90
27647;DHT22;42229;51.230;6.240;2022-10-31T11:34:32;20.10;99.90
27647;DHT22;42229;51.230;6.240;2022-10-31T11:37:12;20.10;99.90
27647;DHT22;42229;51.230;6.240;2022-10-31T11:39:44;20.20;99.90
27647;DHT22;42229;51.230;6.240;2022-10-31T11:42:28;20.20;99.90
27647;DHT22;42229;51.230;6.240;2022-10-31T11:47:49;20.40;99.90
27647;DHT22;42229;51.230;6.240;2022-10-31T11:50:20;20.50;99.90
27647;DHT22;42229;51.230;6.240;2022-10-31T11:52:48;20.50;99.90
27647;DHT22;42229;51.230;6.240;2022-10-31T11:55:16;20.60;99.90
27647;DHT22;42229;51.230;6.240;2022-10-31T11:57:54;20.70;99.90
27647;DHT22;42229;51.230;6.240;2022-10-31T12:02:51;20.90;99.90
27647;DHT22;42229;51.230;6.240;2022-10-31T12:05:41;21.00;99.90
27647;DHT22;42229;51.230;6.240;2022-10-31T12:08:11;21.20;99.90
27647;DHT22;42229;51.230;6.240;2022-10-31T12:17:16;21.40;99.90
27647;DHT22;42229;51.230;6.240;2022-10-31T12:19:57;21.40;99.90
27647;DHT22;42229;51.230;6.240;2022-10-31T12:25:18;21.50;99.90
27647;DHT22;42229;51.230;6.240;2022-10-31T12:30:26;21.60;99.90
27647;DHT22;42229;51.230;6.240;2022-10-31T12:33:09;21.70;99.90
27647;DHT22;42229;51.230;6.240;2022-10-31T12:42:10;22.00;99.90
27647;DHT22;42229;51.230;6.240;2022-10-31T12:52:36;22.40;99.90
27647;DHT22;42229;51.230;6.240;2022-10-31T12:58:12;22.50;99.90
27647;DHT22;42229;51.230;6.240;2022-10-31T13:00:43;22.50;99.90
27647;DHT22;42229;51.230;6.240;2022-10-31T13:06:09;22.50;99.90
27647;DHT22;42229;51.230;6.240;2022-10-31T13:08:45;22.50;99.90
27647;DHT22;42229;51.230;6.240;2022-10-31T13:11:24;22.40;99.90
27647;DHT22;42229;51.230;6.240;2022-10-31T13:14:05;22.40;99.90
27647;DHT22;42229;51.230;6.240;2022-10-31T13:16:43;22.30;99.90
27647;DHT22;42229;51.230;6.240;2022-10-31T13:24:43;22.30;99.90
27647;DHT22;42229;51.230;6.240;2022-10-31T13:27:25;22.40;99.90
27647;DHT22;42229;51.230;6.240;2022-10-31T13:30:03;22.60;99.90
27647;DHT22;42229;51.230;6.240;2022-10-31T13:32:42;22.70;99.90
27647;DHT22;42229;51.230;6.240;2022-10-31T13:35:29;22.90;99.90
27647;DHT22;42229;51.230;6.240;2022-10-31T13:38:01;23.10;99.90
27647;DHT22;42229;51.230;6.240;2022-10-31T13:40:42;23.30;99.90
27647;DHT22;42229;51.230;6.240;2022-10-31T13:43:26;23.40;99.90
27647;DHT22;42229;51.230;6.240;2022-10-31T13:45:54;23.60;99.90
27647;DHT22;42229;51.230;6.240;2022-10-31T13:51:00;23.70;99.90
27647;DHT22;42229;51.230;6.240;2022-10-31T13:53:35;23.60;99.90
27647;DHT22;42229;51.230;6.240;2022-10-31T13:56:16;23.60;99.90
27647;DHT22;42229;51.230;6.240;2022-10-31T14:01:46;23.40;99.90
27647;DHT22;42229;51.230;6.240;2022-10-31T14:04:15;23.40;99.90
27647;DHT22;42229;51.230;6.240;2022-10-31T14:09:22;23.10;99.90
27647;DHT22;42229;51.230;6.240;2022-10-31T14:11:51;23.10;99.90
27647;DHT22;42229;51.230;6.240;2022-10-31T14:14:18;22.90;99.90
27647;DHT22;42229;51.230;6.240;2022-10-31T14:16:45;22.80;99.90
27647;DHT22;42229;51.230;6.240;2022-10-31T14:19:16;22.70;99.90
27647;DHT22;42229;51.230;6.240;2022-10-31T14:21:44;22.70;99.90
27647;DHT22;42229;51.230;6.240;2022-10-31T14:24:16;22.70;99.90
27647;DHT22;42229;51.230;6.240;2022-10-31T14:29:50;22.80;99.90
27647;DHT22;42229;51.230;6.240;2022-10-31T14:32:21;22.90;99.90
27647;DHT22;42229;51.230;6.240;2022-10-31T14:43:07;23.60;99.90
27647;DHT22;42229;51.230;6.240;2022-10-31T14:51:35;23.70;99.90
27647;DHT22;42229;51.230;6.240;2022-10-31T14:54:05;23.60;99.90
27647;DHT22;42229;51.230;6.240;2022-10-31T14:56:33;23.60;99.90
27647;DHT22;42229;51.230;6.240;2022-10-31T14:59:02;23.60;99.90
27647;DHT22;42229;51.230;6.240;2022-10-31T15:01:31;23.50;99.90
27647;DHT22;42229;51.230;6.240;2022-10-31T15:06:42;23.30;99.90
27647;DHT22;42229;51.230;6.240;2022-10-31T15:09:23;23.10;99.90
27647;DHT22;42229;51.230;6.240;2022-10-31T15:11:54;22.90;99.90
27647;DHT22;42229;51.230;6.240;2022-10-31T15:14:25;22.70;99.90
27647;DHT22;42229;51.230;6.240;2022-10-31T15:16:53;22.60;99.90
27647;DHT22;42229;51.230;6.240;2022-10-31T15:19:21;22.40;99.90
27647;DHT22;42229;51.230;6.240;2022-10-31T15:21:49;22.30;99.90
27647;DHT22;42229;51.230;6.240;2022-10-31T15:24:16;22.20;99.90
27647;DHT22;42229;51.230;6.240;2022-10-31T15:26:45;22.10;99.90
27647;DHT22;42229;51.230;6.240;2022-10-31T15:29:17;22.00;99.90
27647;DHT22;42229;51.230;6.240;2022-10-31T15:31:51;21.80;99.90
27647;DHT22;42229;51.230;6.240;2022-10-31T15:34:21;21.80;99.90
27647;DHT22;42229;51.230;6.240;2022-10-31T15:36:51;21.70;99.90
27647;DHT22;42229;51.230;6.240;2022-10-31T15:39:17;21.60;99.90
27647;DHT22;42229;51.230;6.240;2022-10-31T15:41:48;21.50;99.90
27647;DHT22;42229;51.230;6.240;2022-10-31T15:44:20;21.40;99.90
27647;DHT22;42229;51.230;6.240;2022-10-31T15:47:01;21.30;99.90
27647;DHT22;42229;51.230;6.240;2022-10-31T15:49:31;21.20;99.90
27647;DHT22;42229;51.230;6.240;2022-10-31T15:52:23;21.10;99.90
27647;DHT22;42229;51.230;6.240;2022-10-31T15:54:53;21.10;99.90
27647;DHT22;42229;51.230;6.240;2022-10-31T15:57:24;20.90;99.90
27647;DHT22;42229;51.230;6.240;2022-10-31T15:59:52;20.90;99.90
27647;DHT22;42229;51.230;6.240;2022-10-31T16:02:25;20.70;99.90
27647;DHT22;42229;51.230;6.240;2022-10-31T16:04:54;20.60;99.90
27647;DHT22;42229;51.230;6.240;2022-10-31T16:07:24;20.50;99.90
27647;DHT22;42229;51.230;6.240;2022-10-31T16:09:55;20.50;99.90
27647;DHT22;42229;51.230;6.240;2022-10-31T16:12:23;20.40;99.90
27647;DHT22;42229;51.230;6.240;2022-10-31T16:14:52;20.30;99.90
27647;DHT22;42229;51.230;6.240;2022-10-31T16:17:20;20.20;99.90
27647;DHT22;42229;51.230;6.240;2022-10-31T16:19:52;20.10;99.90
27647;DHT22;42229;51.230;6.240;2022-10-31T16:22:21;20.00;99.90
27647;DHT22;42229;51.230;6.240;2022-10-31T16:24:52;19.90;99.90
27647;DHT22;42229;51.230;6.240;2022-10-31T16:27:21;19.80;99.90
27647;DHT22;42229;51.230;6.240;2022-10-31T16:29:52;19.70;99.90
27647;DHT22;42229;51.230;6.240;2022-10-31T16:32:32;19.60;99.90
27647;DHT22;42229;51.230;6.240;2022-10-31T16:38:13;19.40;99.90
27647;DHT22;42229;51.230;6.240;2022-10-31T16:40:40;19.30;99.90
27647;DHT22;42229;51.230;6.240;2022-10-31T16:43:13;19.30;99.90
27647;DHT22;42229;51.230;6.240;2022-10-31T16:45:47;19.20;99.90
27647;DHT22;42229;51.230;6.240;2022-10-31T16:48:15;19.10;99.90
27647;DHT22;42229;51.230;6.240;2022-10-31T16:50:43;19.10;99.90
27647;DHT22;42229;51.230;6.240;2022-10-31T16:53:10;19.10;99.90
27647;DHT22;42229;51.230;6.240;2022-10-31T16:55:41;19.00;99.90
27647;DHT22;42229;51.230;6.240;2022-10-31T16:58:14;19.00;99.90
27647;DHT22;42229;51.230;6.240;2022-10-31T17:00:42;18.90;99.90
27647;DHT22;42229;51.230;6.240;2022-10-31T17:03:08;18.90;99.90
27647;DHT22;42229;51.230;6.240;2022-10-31T17:05:34;18.90;99.90
27647;DHT22;42229;51.230;6.240;2022-10-31T17:08:01;18.90;99.90
27647;DHT22;42229;51.230;6.240;2022-10-31T17:10:27;18.80;99.90
27647;DHT22;42229;51.230;6.240;2022-10-31T17:12:54;18.90;99.90
27647;DHT22;42229;51.230;6.240;2022-10-31T17:15:26;18.80;99.90
27647;DHT22;42229;51.230;6.240;2022-10-31T17:17:53;18.80;99.90
27647;DHT22;42229;51.230;6.240;2022-10-31T17:20:24;18.70;99.90
27647;DHT22;42229;51.230;6.240;2022-10-31T17:22:59;18.70;99.90
27647;DHT22;42229;51.230;6.240;2022-10-31T17:25:27;18.70;99.90
27647;DHT22;42229;51.230;6.240;2022-10-31T17:27:54;18.70;99.90
27647;DHT22;42229;51.230;6.240;2022-10-31T17:30:21;18.60;99.90
27647;DHT22;42229;51.230;6.240;2022-10-31T17:32:47;18.60;99.90
27647;DHT22;42229;51.230;6.240;2022-10-31T17:35:14;18.50;99.90
27647;DHT22;42229;51.230;6.240;2022-10-31T17:37:41;18.50;99.90
27647;DHT22;42229;51.230;6.240;2022-10-31T17:40:09;18.50;99.90
27647;DHT22;42229;51.230;6.240;2022-10-31T17:42:36;18.40;99.90
27647;DHT22;42229;51.230;6.240;2022-10-31T17:45:02;18.40;99.90
27647;DHT22;42229;51.230;6.240;2022-10-31T17:47:29;18.40;99.90
27647;DHT22;42229;51.230;6.240;2022-10-31T17:49:56;18.40;99.90
27647;DHT22;42229;51.230;6.240;2022-10-31T17:52:22;18.30;99.90
27647;DHT22;42229;51.230;6.240;2022-10-31T17:54:48;18.30;99.90